createdAt,value
2023-04-24T00:00:34.401Z,61
2023-04-24T00:01:41.225Z,60
2023-04-24T00:02:49.198Z,61
2023-04-24T00:03:56.023Z,61
2023-04-24T00:05:02.961Z,61
2023-04-24T00:06:09.642Z,61
2023-04-24T00:07:16.503Z,60
2023-04-24T00:08:23.425Z,60
2023-04-24T00:09:31.302Z,60
2023-04-24T00:10:38.299Z,60
2023-04-24T00:11:45.100Z,59
2023-04-24T00:12:52.835Z,59
2023-04-24T00:14:00.456Z,59
2023-04-24T00:15:07.320Z,58
2023-04-24T00:16:14.533Z,58
2023-04-24T00:17:21.472Z,58
2023-04-24T00:18:28.442Z,58
2023-04-24T00:19:35.286Z,58
2023-04-24T00:20:42.221Z,58
2023-04-24T00:21:49.242Z,58
2023-04-24T00:22:58.450Z,57
2023-04-24T00:24:05.263Z,57
2023-04-24T00:25:12.080Z,57
2023-04-24T00:26:19.160Z,57
2023-04-24T00:27:25.986Z,56
2023-04-24T00:28:32.875Z,56
2023-04-24T00:29:39.765Z,56
2023-04-24T00:30:46.570Z,56
2023-04-24T00:31:54.584Z,56
2023-04-24T00:33:01.489Z,55
2023-04-24T00:34:08.276Z,55
2023-04-24T00:35:15.153Z,55
2023-04-24T00:36:22.023Z,54
2023-04-24T00:37:28.847Z,55
2023-04-24T00:38:36.890Z,54
2023-04-24T00:39:44.175Z,54
2023-04-24T00:40:50.575Z,54
2023-04-24T00:41:57.431Z,54
2023-04-24T00:43:04.319Z,54
2023-04-24T00:44:11.153Z,54
2023-04-24T00:45:18.111Z,54
2023-04-24T00:46:25.333Z,54
2023-04-24T00:47:32.272Z,54
2023-04-24T00:48:39.158Z,54
2023-04-24T00:49:46.890Z,54
2023-04-24T00:50:54.613Z,55
2023-04-24T00:52:01.452Z,55
2023-04-24T00:53:08.289Z,55
2023-04-24T00:54:15.068Z,55
2023-04-24T00:55:21.992Z,55
2023-04-24T00:56:28.870Z,55
2023-04-24T00:57:35.820Z,54
2023-04-24T00:58:42.689Z,54
2023-04-24T00:59:49.627Z,54
2023-04-24T01:00:56.536Z,54
2023-04-24T01:02:03.368Z,54
2023-04-24T01:03:11.073Z,54
2023-04-24T01:04:17.914Z,54
2023-04-24T01:05:24.800Z,54
2023-04-24T01:06:31.673Z,54
2023-04-24T01:07:38.516Z,54
2023-04-24T01:08:45.337Z,54
2023-04-24T01:09:52.422Z,54
2023-04-24T01:10:58.975Z,54
2023-04-24T01:12:05.889Z,54
2023-04-24T01:13:12.856Z,53
2023-04-24T01:14:19.768Z,53
2023-04-24T01:15:26.629Z,53
2023-04-24T01:16:33.660Z,53
2023-04-24T01:17:41.392Z,53
2023-04-24T01:18:49.220Z,53
2023-04-24T01:19:56.076Z,53
2023-04-24T01:21:03.076Z,53
2023-04-24T01:22:09.988Z,53
2023-04-24T01:23:16.780Z,53
2023-04-24T01:24:23.692Z,53
2023-04-24T01:25:30.781Z,53
2023-04-24T01:26:37.722Z,53
2023-04-24T01:27:44.619Z,53
2023-04-24T01:28:51.520Z,53
2023-04-24T01:29:58.280Z,53
2023-04-24T01:31:05.130Z,53
2023-04-24T01:32:11.987Z,53
2023-04-24T01:33:19.716Z,53
2023-04-24T01:34:26.572Z,53
2023-04-24T01:35:34.292Z,53
2023-04-24T01:36:41.220Z,53
2023-04-24T01:37:48.104Z,54
2023-04-24T01:38:55.035Z,54
2023-04-24T01:40:02.002Z,54
2023-04-24T01:41:11.697Z,54
2023-04-24T01:42:18.515Z,54
2023-04-24T01:43:25.359Z,54
2023-04-24T01:44:33.304Z,54
2023-04-24T01:45:40.092Z,54
2023-04-24T01:46:48.708Z,54
2023-04-24T01:47:55.588Z,54
2023-04-24T01:49:02.678Z,54
2023-04-24T01:50:09.532Z,54
2023-04-24T01:51:16.377Z,54
2023-04-24T01:52:23.196Z,54
2023-04-24T01:53:30.090Z,53
2023-04-24T01:54:36.865Z,53
2023-04-24T01:55:43.748Z,53
2023-04-24T01:56:50.596Z,53
2023-04-24T01:57:57.387Z,53
2023-04-24T01:59:04.241Z,53
2023-04-24T02:00:11.409Z,53
2023-04-24T02:01:19.241Z,53
2023-04-24T02:02:26.158Z,53
2023-04-24T02:03:33.433Z,53
2023-04-24T02:04:40.007Z,53
2023-04-24T02:05:46.932Z,54
2023-04-24T02:06:53.821Z,53
2023-04-24T02:08:00.619Z,54
2023-04-24T02:09:07.502Z,53
2023-04-24T02:10:14.376Z,53
2023-04-24T02:11:21.196Z,53
2023-04-24T02:12:28.135Z,53
2023-04-24T02:13:35.081Z,53
2023-04-24T02:14:41.966Z,53
2023-04-24T02:15:48.896Z,53
2023-04-24T02:16:55.757Z,53
2023-04-24T02:18:02.691Z,53
2023-04-24T02:19:09.571Z,53
2023-04-24T02:20:18.091Z,53
2023-04-24T02:21:25.891Z,53
2023-04-24T02:22:32.729Z,53
2023-04-24T02:23:39.790Z,53
2023-04-24T02:24:46.868Z,53
2023-04-24T02:25:53.636Z,53
2023-04-24T02:27:00.515Z,53
2023-04-24T02:28:07.538Z,53
2023-04-24T02:29:14.408Z,53
2023-04-24T02:30:21.198Z,53
2023-04-24T02:31:28.150Z,53
2023-04-24T02:32:34.925Z,53
2023-04-24T02:33:41.747Z,53
2023-04-24T02:34:48.837Z,53
2023-04-24T02:35:55.876Z,53
2023-04-24T02:37:02.775Z,53
2023-04-24T02:38:09.667Z,53
2023-04-24T02:39:16.500Z,53
2023-04-24T02:40:23.345Z,53
2023-04-24T02:41:30.243Z,53
2023-04-24T02:42:37.243Z,53
2023-04-24T02:43:44.125Z,53
2023-04-24T02:44:52.610Z,52
2023-04-24T02:45:59.494Z,52
2023-04-24T02:47:06.309Z,53
2023-04-24T02:48:13.500Z,53
2023-04-24T02:49:20.349Z,53
2023-04-24T02:50:27.198Z,53
2023-04-24T02:51:35.871Z,53
2023-04-24T02:52:42.719Z,53
2023-04-24T02:53:52.412Z,53
2023-04-24T02:54:59.292Z,53
2023-04-24T02:56:06.169Z,53
2023-04-24T02:57:13.896Z,53
2023-04-24T02:58:20.774Z,53
2023-04-24T02:59:27.662Z,53
2023-04-24T03:00:34.626Z,53
2023-04-24T03:01:41.574Z,53
2023-04-24T03:02:49.490Z,53
2023-04-24T03:03:57.223Z,53
2023-04-24T03:05:03.949Z,53
2023-04-24T03:06:10.899Z,52
2023-04-24T03:07:17.692Z,52
2023-04-24T03:08:24.574Z,52
2023-04-24T03:09:31.414Z,52
2023-04-24T03:10:38.212Z,52
2023-04-24T03:11:45.964Z,52
2023-04-24T03:12:52.828Z,52
2023-04-24T03:14:00.525Z,52
2023-04-24T03:15:09.418Z,52
2023-04-24T03:16:17.133Z,53
2023-04-24T03:17:23.905Z,52
2023-04-24T03:18:31.648Z,52
2023-04-24T03:19:38.448Z,52
2023-04-24T03:20:45.303Z,53
2023-04-24T03:21:52.086Z,53
2023-04-24T03:22:58.986Z,52
2023-04-24T03:24:05.855Z,53
2023-04-24T03:25:12.799Z,52
2023-04-24T03:26:19.648Z,53
2023-04-24T03:27:26.638Z,53
2023-04-24T03:28:33.576Z,53
2023-04-24T03:29:40.471Z,53
2023-04-24T03:30:48.085Z,53
2023-04-24T03:31:54.993Z,53
2023-04-24T03:33:02.799Z,53
2023-04-24T03:34:09.667Z,53
2023-04-24T03:35:16.394Z,53
2023-04-24T03:36:23.237Z,52
2023-04-24T03:37:30.130Z,52
2023-04-24T03:38:36.945Z,52
2023-04-24T03:39:44.216Z,52
2023-04-24T03:40:50.728Z,52
2023-04-24T03:41:57.714Z,52
2023-04-24T03:43:04.630Z,52
2023-04-24T03:44:11.423Z,52
2023-04-24T03:45:19.172Z,52
2023-04-24T03:46:26.183Z,52
2023-04-24T03:47:32.928Z,52
2023-04-24T03:48:39.658Z,52
2023-04-24T03:49:46.521Z,52
2023-04-24T03:50:54.098Z,52
2023-04-24T03:52:00.990Z,53
2023-04-24T03:53:07.877Z,53
2023-04-24T03:54:14.779Z,53
2023-04-24T03:55:21.787Z,53
2023-04-24T03:56:28.644Z,53
2023-04-24T03:57:35.501Z,53
2023-04-24T03:58:42.318Z,53
2023-04-24T03:59:50.065Z,53
2023-04-24T04:00:56.902Z,53
2023-04-24T04:02:03.755Z,53
2023-04-24T04:03:10.877Z,53
2023-04-24T04:04:18.604Z,53
2023-04-24T04:05:25.351Z,53
2023-04-24T04:06:33.978Z,53
2023-04-24T04:07:40.840Z,53
2023-04-24T04:08:47.869Z,54
2023-04-24T04:09:54.702Z,53
2023-04-24T04:11:05.438Z,53
2023-04-24T04:12:11.398Z,53
2023-04-24T04:13:18.313Z,53
2023-04-24T04:14:25.181Z,53
2023-04-24T04:15:31.984Z,53
2023-04-24T04:16:38.885Z,53
2023-04-24T04:17:45.788Z,53
2023-04-24T04:18:52.629Z,53
2023-04-24T04:19:59.527Z,53
2023-04-24T04:21:06.413Z,53
2023-04-24T04:22:13.306Z,53
2023-04-24T04:23:20.962Z,53
2023-04-24T04:24:27.926Z,53
2023-04-24T04:25:35.754Z,53
2023-04-24T04:26:43.518Z,53
2023-04-24T04:27:50.289Z,53
2023-04-24T04:28:57.130Z,53
2023-04-24T04:30:04.070Z,53
2023-04-24T04:31:11.235Z,53
2023-04-24T04:32:18.117Z,53
2023-04-24T04:33:24.889Z,54
2023-04-24T04:34:31.844Z,54
2023-04-24T04:35:38.730Z,54
2023-04-24T04:36:45.584Z,54
2023-04-24T04:37:54.107Z,54
2023-04-24T04:39:00.878Z,54
2023-04-24T04:40:07.941Z,54
2023-04-24T04:41:14.671Z,54
2023-04-24T04:42:21.453Z,54
2023-04-24T04:43:28.254Z,54
2023-04-24T04:44:35.083Z,54
2023-04-24T04:45:41.930Z,54
2023-04-24T04:46:48.706Z,54
2023-04-24T04:47:55.506Z,53
2023-04-24T04:49:02.394Z,53
2023-04-24T04:50:09.314Z,53
2023-04-24T04:51:17.088Z,53
2023-04-24T04:52:23.967Z,53
2023-04-24T04:53:30.823Z,53
2023-04-24T04:54:38.560Z,53
2023-04-24T04:55:45.321Z,53
2023-04-24T04:56:52.196Z,53
2023-04-24T04:58:00.759Z,53
2023-04-24T04:59:08.370Z,53
2023-04-24T05:00:15.174Z,53
2023-04-24T05:01:22.140Z,53
2023-04-24T05:02:29.144Z,52
2023-04-24T05:03:35.983Z,52
2023-04-24T05:04:43.111Z,52
2023-04-24T05:05:49.849Z,52
2023-04-24T05:06:56.650Z,52
2023-04-24T05:08:04.502Z,52
2023-04-24T05:09:12.831Z,52
2023-04-24T05:10:19.581Z,52
2023-04-24T05:11:26.398Z,52
2023-04-24T05:12:33.131Z,52
2023-04-24T05:13:40.916Z,52
2023-04-24T05:14:46.706Z,52
2023-04-24T05:15:53.470Z,52
2023-04-24T05:17:00.375Z,51
2023-04-24T05:18:07.410Z,51
2023-04-24T05:19:14.158Z,52
2023-04-24T05:20:21.001Z,52
2023-04-24T05:21:27.915Z,52
2023-04-24T05:22:34.709Z,51
2023-04-24T05:23:41.772Z,51
2023-04-24T05:24:48.334Z,51
2023-04-24T05:25:55.126Z,51
2023-04-24T05:27:01.884Z,51
2023-04-24T05:28:11.379Z,50
2023-04-24T05:29:18.230Z,50
2023-04-24T05:30:25.014Z,50
2023-04-24T05:31:31.933Z,51
2023-04-24T05:32:38.811Z,51
2023-04-24T05:33:45.746Z,50
2023-04-24T05:34:52.554Z,50
2023-04-24T05:35:59.445Z,50
2023-04-24T05:37:06.293Z,50
2023-04-24T05:38:13.094Z,50
2023-04-24T05:39:19.932Z,50
2023-04-24T05:40:26.717Z,50
2023-04-24T05:41:33.522Z,50
2023-04-24T05:42:40.322Z,50
2023-04-24T05:43:47.180Z,51
2023-04-24T05:44:54.774Z,50
2023-04-24T05:46:00.721Z,50
2023-04-24T05:47:07.514Z,50
2023-04-24T05:48:14.363Z,50
2023-04-24T05:49:21.178Z,50
2023-04-24T05:50:27.946Z,50
2023-04-24T05:51:34.742Z,50
2023-04-24T05:52:41.527Z,50
2023-04-24T05:53:48.394Z,50
2023-04-24T05:54:55.341Z,50
2023-04-24T05:56:02.334Z,50
2023-04-24T05:57:09.356Z,50
2023-04-24T05:58:16.338Z,50
2023-04-24T05:59:23.329Z,50
2023-04-24T06:00:30.159Z,50
2023-04-24T06:01:36.971Z,49
2023-04-24T06:02:43.856Z,49
2023-04-24T06:03:50.738Z,49
2023-04-24T06:04:57.446Z,49
2023-04-24T06:06:04.336Z,50
2023-04-24T06:07:11.150Z,50
2023-04-24T06:08:18.033Z,49
2023-04-24T06:09:24.840Z,49
2023-04-24T06:10:31.666Z,49
2023-04-24T06:11:38.525Z,49
2023-04-24T06:12:45.275Z,49
2023-04-24T06:13:52.149Z,49
2023-04-24T06:14:59.028Z,49
2023-04-24T06:16:05.983Z,49
2023-04-24T06:17:12.793Z,48
2023-04-24T06:18:19.882Z,48
2023-04-24T06:19:26.753Z,48
2023-04-24T06:20:33.611Z,48
2023-04-24T06:21:40.427Z,48
2023-04-24T06:22:47.292Z,48
2023-04-24T06:23:54.068Z,49
2023-04-24T06:25:00.947Z,48
2023-04-24T06:26:07.977Z,48
2023-04-24T06:27:15.803Z,48
2023-04-24T06:28:21.651Z,47
2023-04-24T06:29:28.437Z,46
2023-04-24T06:30:35.225Z,46
2023-04-24T06:31:42.111Z,46
2023-04-24T06:32:48.904Z,47
2023-04-24T06:33:55.842Z,47
2023-04-24T06:35:02.614Z,47
2023-04-24T06:36:09.672Z,47
2023-04-24T06:37:16.507Z,47
2023-04-24T06:38:23.392Z,46
2023-04-24T06:39:30.363Z,46
2023-04-24T06:40:37.151Z,46
2023-04-24T06:41:43.985Z,46
2023-04-24T06:42:50.729Z,46
2023-04-24T06:43:57.552Z,45
2023-04-24T06:45:04.413Z,45
2023-04-24T06:46:11.460Z,46
2023-04-24T06:47:18.192Z,45
2023-04-24T06:48:25.022Z,46
2023-04-24T06:49:31.804Z,46
2023-04-24T06:50:41.503Z,46
2023-04-24T06:51:48.291Z,47
2023-04-24T06:52:55.165Z,46
2023-04-24T06:54:02.100Z,46
2023-04-24T06:55:08.877Z,46
2023-04-24T06:56:15.784Z,47
2023-04-24T06:57:22.674Z,46
2023-04-24T06:58:29.498Z,46
2023-04-24T06:59:36.466Z,46
2023-04-24T07:00:43.363Z,46
2023-04-24T07:01:50.447Z,46
2023-04-24T07:02:59.570Z,45
2023-04-24T07:04:06.335Z,45
2023-04-24T07:05:13.097Z,45
2023-04-24T07:06:20.091Z,45
2023-04-24T07:07:26.905Z,45
2023-04-24T07:08:33.710Z,45
2023-04-24T07:09:40.580Z,44
2023-04-24T07:10:47.480Z,44
2023-04-24T07:11:54.440Z,44
2023-04-24T07:13:01.286Z,43
2023-04-24T07:14:08.259Z,42
2023-04-24T07:15:15.163Z,42
2023-04-24T07:16:22.078Z,41
2023-04-24T07:17:28.893Z,40
2023-04-24T07:18:35.664Z,40
2023-04-24T07:19:42.637Z,40
2023-04-24T07:20:49.224Z,39
2023-04-24T07:21:56.006Z,39
2023-04-24T07:23:02.776Z,39
2023-04-24T07:24:09.582Z,40
2023-04-24T07:25:16.391Z,40
2023-04-24T07:26:23.172Z,40
2023-04-24T07:27:29.989Z,40
2023-04-24T07:28:36.935Z,40
2023-04-24T07:29:43.884Z,39
2023-04-24T07:30:50.457Z,39
2023-04-24T07:31:57.741Z,39
2023-04-24T07:33:04.392Z,39
2023-04-24T07:34:11.092Z,39
2023-04-24T07:35:17.925Z,38
2023-04-24T07:36:24.791Z,38
2023-04-24T07:37:31.593Z,38
2023-04-24T07:38:38.874Z,38
2023-04-24T07:39:48.232Z,38
2023-04-24T07:40:55.057Z,38
2023-04-24T07:42:01.889Z,38
2023-04-24T07:43:08.751Z,38
2023-04-24T07:44:15.630Z,38
2023-04-24T07:45:22.428Z,38
2023-04-24T07:46:30.569Z,37
2023-04-24T07:47:37.309Z,38
2023-04-24T07:48:44.081Z,38
2023-04-24T07:49:50.813Z,37
2023-04-24T07:50:57.601Z,38
2023-04-24T07:52:04.406Z,38
2023-04-24T07:53:11.226Z,37
2023-04-24T07:54:18.087Z,37
2023-04-24T07:55:27.523Z,37
2023-04-24T07:56:31.678Z,37
2023-04-24T07:57:38.419Z,37
2023-04-24T07:58:45.210Z,37
2023-04-24T07:59:52.024Z,37
2023-04-24T08:00:58.790Z,37
2023-04-24T08:02:05.561Z,37
2023-04-24T08:03:12.473Z,36
2023-04-24T08:04:19.401Z,36
2023-04-24T08:05:26.168Z,37
2023-04-24T08:06:33.194Z,37
2023-04-24T08:07:39.935Z,37
2023-04-24T08:08:47.093Z,37
2023-04-24T08:09:53.900Z,37
2023-04-24T08:11:00.709Z,37
2023-04-24T08:12:07.617Z,37
2023-04-24T08:13:14.568Z,37
2023-04-24T08:14:21.533Z,38
2023-04-24T08:15:28.412Z,37
2023-04-24T08:16:35.844Z,37
2023-04-24T08:17:42.538Z,37
2023-04-24T08:18:49.342Z,37
2023-04-24T08:19:56.432Z,37
2023-04-24T08:21:03.247Z,37
2023-04-24T08:22:10.032Z,38
2023-04-24T08:23:16.880Z,38
2023-04-24T08:24:23.700Z,38
2023-04-24T08:25:30.526Z,38
2023-04-24T08:26:37.356Z,38
2023-04-24T08:27:44.144Z,38
2023-04-24T08:28:50.956Z,37
2023-04-24T08:29:57.876Z,37
2023-04-24T08:31:04.699Z,37
2023-04-24T08:32:11.514Z,36
2023-04-24T08:33:18.387Z,36
2023-04-24T08:34:28.043Z,37
2023-04-24T08:35:35.066Z,36
2023-04-24T08:36:46.928Z,36
2023-04-24T08:37:48.699Z,36
2023-04-24T08:38:55.582Z,36
2023-04-24T08:40:02.471Z,36
2023-04-24T08:41:14.441Z,37
2023-04-24T08:42:21.268Z,36
2023-04-24T08:43:28.451Z,36
2023-04-24T08:44:35.248Z,36
2023-04-24T08:45:42.150Z,36
2023-04-24T08:46:48.975Z,36
2023-04-24T08:47:55.831Z,36
2023-04-24T08:49:02.497Z,36
2023-04-24T08:50:09.300Z,36
2023-04-24T08:51:16.125Z,36
2023-04-24T08:52:22.933Z,36
2023-04-24T08:53:29.690Z,36
2023-04-24T08:54:36.504Z,36
2023-04-24T08:55:43.380Z,37
2023-04-24T08:56:50.238Z,36
2023-04-24T08:57:56.986Z,36
2023-04-24T08:59:03.812Z,36
2023-04-24T09:00:12.050Z,36
2023-04-24T09:01:17.881Z,36
2023-04-24T09:02:24.957Z,36
2023-04-24T09:03:31.874Z,36
2023-04-24T09:04:38.772Z,36
2023-04-24T09:05:45.686Z,36
2023-04-24T09:06:52.561Z,37
2023-04-24T09:07:59.325Z,36
2023-04-24T09:09:06.154Z,37
2023-04-24T09:10:13.132Z,37
2023-04-24T09:11:19.890Z,36
2023-04-24T09:12:26.708Z,36
2023-04-24T09:13:33.517Z,37
2023-04-24T09:14:40.362Z,37
2023-04-24T09:15:47.242Z,36
2023-04-24T09:16:54.084Z,37
2023-04-24T09:18:01.005Z,37
2023-04-24T09:19:07.798Z,37
2023-04-24T09:20:15.240Z,36
2023-04-24T09:21:22.167Z,36
2023-04-24T09:22:29.003Z,36
2023-04-24T09:23:35.767Z,37
2023-04-24T09:24:42.559Z,37
2023-04-24T09:25:49.328Z,36
2023-04-24T09:26:56.115Z,36
2023-04-24T09:28:02.958Z,36
2023-04-24T09:29:09.754Z,36
2023-04-24T09:30:19.395Z,36
2023-04-24T09:31:26.171Z,36
2023-04-24T09:32:33.017Z,36
2023-04-24T09:33:39.804Z,36
2023-04-24T09:34:51.738Z,36
2023-04-24T09:36:08.846Z,36
2023-04-24T09:37:15.798Z,35
2023-04-24T09:38:22.629Z,36
2023-04-24T09:39:34.580Z,36
2023-04-24T09:40:41.746Z,36
2023-04-24T09:41:48.128Z,36
2023-04-24T09:42:54.908Z,36
2023-04-24T09:44:01.727Z,37
2023-04-24T09:45:16.587Z,36
2023-04-24T09:46:23.343Z,36
2023-04-24T09:47:35.391Z,36
2023-04-24T09:48:42.213Z,36
2023-04-24T09:49:48.955Z,37
2023-04-24T09:50:55.722Z,36
2023-04-24T09:52:02.557Z,37
2023-04-24T09:53:09.554Z,36
2023-04-24T09:54:16.300Z,36
2023-04-24T09:55:25.886Z,37
2023-04-24T09:56:32.805Z,37
2023-04-24T09:57:39.752Z,36
2023-04-24T09:58:54.250Z,37
2023-04-24T10:00:01.000Z,37
2023-04-24T10:01:08.390Z,37
2023-04-24T10:02:15.100Z,37
2023-04-24T10:03:21.985Z,37
2023-04-24T10:04:28.872Z,37
2023-04-24T10:05:35.630Z,37
2023-04-24T10:06:42.549Z,37
2023-04-24T10:07:50.136Z,37
2023-04-24T10:08:56.287Z,37
2023-04-24T10:10:03.236Z,38
2023-04-24T10:11:10.227Z,38
2023-04-24T10:12:17.030Z,38
2023-04-24T10:13:24.049Z,39
2023-04-24T10:14:30.941Z,39
2023-04-24T10:15:37.924Z,39
2023-04-24T10:16:44.630Z,39
2023-04-24T10:17:51.619Z,39
2023-04-24T10:18:58.440Z,40
2023-04-24T10:20:05.399Z,40
2023-04-24T10:21:12.303Z,41
2023-04-24T10:22:19.125Z,41
2023-04-24T10:23:25.939Z,40
2023-04-24T10:24:32.821Z,40
2023-04-24T10:25:39.610Z,41
2023-04-24T10:26:46.380Z,41
2023-04-24T10:27:53.159Z,41
2023-04-24T10:29:02.751Z,41
2023-04-24T10:30:09.550Z,41
2023-04-24T10:31:16.525Z,42
2023-04-24T10:32:23.364Z,42
2023-04-24T10:33:30.113Z,42
2023-04-24T10:34:36.891Z,42
2023-04-24T10:35:43.779Z,43
2023-04-24T10:36:50.611Z,43
2023-04-24T10:37:57.370Z,43
2023-04-24T10:39:07.179Z,43
2023-04-24T10:40:14.032Z,43
2023-04-24T10:41:23.977Z,43
2023-04-24T10:42:30.866Z,43
2023-04-24T10:43:37.666Z,42
2023-04-24T10:44:44.488Z,43
2023-04-24T10:45:51.295Z,43
2023-04-24T10:47:06.397Z,43
2023-04-24T10:48:18.611Z,43
2023-04-24T10:49:25.376Z,43
2023-04-24T10:50:32.107Z,43
2023-04-24T10:51:47.357Z,43
2023-04-24T10:52:56.780Z,43
2023-04-24T10:54:03.560Z,43
2023-04-24T10:55:10.383Z,43
2023-04-24T10:56:17.155Z,43
2023-04-24T10:57:23.989Z,43
2023-04-24T10:58:30.780Z,43
2023-04-24T10:59:45.611Z,43
2023-04-24T11:00:52.405Z,44
2023-04-24T11:02:04.396Z,43
2023-04-24T11:03:11.250Z,43
2023-04-24T11:04:28.423Z,44
2023-04-24T11:05:35.220Z,44
2023-04-24T11:06:52.455Z,43
2023-04-24T11:07:59.333Z,43
2023-04-24T11:09:16.510Z,43
2023-04-24T11:10:23.338Z,44
2023-04-24T11:11:30.142Z,44
2023-04-24T11:12:37.016Z,43
2023-04-24T11:13:43.815Z,42
2023-04-24T11:14:58.686Z,43
2023-04-24T11:16:05.368Z,43
2023-04-24T11:17:17.298Z,43
2023-04-24T11:18:34.454Z,43
2023-04-24T11:19:41.213Z,43
2023-04-24T11:20:47.965Z,43
2023-04-24T11:21:54.767Z,43
2023-04-24T11:23:04.461Z,43
2023-04-24T11:24:11.193Z,43
2023-04-24T11:25:28.423Z,43
2023-04-24T11:26:35.210Z,43
2023-04-24T11:27:41.989Z,44
2023-04-24T11:28:48.808Z,44
2023-04-24T11:29:55.868Z,45
2023-04-24T11:31:02.475Z,45
2023-04-24T11:32:19.771Z,45
2023-04-24T11:33:29.386Z,45
2023-04-24T11:34:36.165Z,45
2023-04-24T11:35:42.947Z,45
2023-04-24T11:36:49.720Z,45
2023-04-24T11:39:03.359Z,47
2023-04-24T11:40:10.100Z,46
2023-04-24T11:41:16.847Z,47
2023-04-24T11:42:23.644Z,47
2023-04-24T11:43:33.356Z,47
2023-04-24T11:44:37.253Z,47
2023-04-24T11:45:44.037Z,47
2023-04-24T11:46:53.589Z,47
2023-04-24T11:48:00.525Z,47
2023-04-24T11:49:07.388Z,47
2023-04-24T11:50:14.312Z,47
2023-04-24T11:51:21.273Z,47
2023-04-24T11:52:28.214Z,47
2023-04-24T11:53:35.015Z,47
2023-04-24T11:54:41.868Z,47
2023-04-24T11:55:53.819Z,48
2023-04-24T11:57:00.561Z,48
2023-04-24T11:58:10.099Z,48
2023-04-24T11:59:16.845Z,48
2023-04-24T12:00:23.623Z,48
2023-04-24T12:01:33.624Z,49
2023-04-24T12:02:48.813Z,49
2023-04-24T12:03:55.703Z,49
2023-04-24T12:05:05.363Z,49
2023-04-24T12:06:11.892Z,49
2023-04-24T12:07:18.643Z,49
2023-04-24T12:08:25.415Z,49
2023-04-24T12:09:32.224Z,49
2023-04-24T12:10:49.493Z,49
2023-04-24T12:11:56.202Z,49
2023-04-24T12:13:02.925Z,49
2023-04-24T12:14:09.740Z,49
2023-04-24T12:15:16.514Z,50
2023-04-24T12:16:23.342Z,50
2023-04-24T12:17:30.101Z,49
2023-04-24T12:18:36.862Z,50
2023-04-24T12:19:46.259Z,50
2023-04-24T12:20:53.623Z,50
2023-04-24T12:22:01.201Z,50
2023-04-24T12:23:08.070Z,50
2023-04-24T12:24:15.026Z,50
2023-04-24T12:25:21.914Z,50
2023-04-24T12:26:28.769Z,50
2023-04-24T12:27:35.551Z,50
2023-04-24T12:28:42.441Z,50
2023-04-24T12:29:49.273Z,50
2023-04-24T12:30:56.183Z,50
2023-04-24T12:32:03.027Z,51
2023-04-24T12:33:09.870Z,51
2023-04-24T12:34:16.748Z,51
2023-04-24T12:35:26.242Z,51
2023-04-24T12:36:32.972Z,51
2023-04-24T12:37:39.832Z,51
2023-04-24T12:38:46.607Z,51
2023-04-24T12:39:53.309Z,52
2023-04-24T12:41:07.896Z,52
2023-04-24T12:42:14.812Z,52
2023-04-24T12:43:21.635Z,52
2023-04-24T12:44:28.542Z,52
2023-04-24T12:45:35.449Z,52
2023-04-24T12:46:42.336Z,52
2023-04-24T12:47:49.092Z,52
2023-04-24T12:48:55.831Z,53
2023-04-24T12:50:02.663Z,53
2023-04-24T12:51:09.736Z,52
2023-04-24T12:52:16.432Z,52
2023-04-24T12:53:23.191Z,53
2023-04-24T12:54:29.961Z,53
2023-04-24T12:55:36.708Z,53
2023-04-24T12:56:43.491Z,53
2023-04-24T12:57:50.388Z,53
2023-04-24T12:58:57.156Z,53
2023-04-24T13:00:04.269Z,53
2023-04-24T13:01:11.294Z,53
2023-04-24T13:02:18.063Z,54
2023-04-24T13:03:26.063Z,54
2023-04-24T13:04:32.928Z,53
2023-04-24T13:05:39.871Z,55
2023-04-24T13:06:46.940Z,55
2023-04-24T13:07:53.897Z,55
2023-04-24T13:09:00.759Z,55
2023-04-24T13:10:07.614Z,54
2023-04-24T13:11:14.427Z,55
2023-04-24T13:12:21.211Z,55
2023-04-24T13:13:30.837Z,55
2023-04-24T13:14:37.669Z,56
2023-04-24T13:15:44.499Z,56
2023-04-24T13:16:51.463Z,56
2023-04-24T13:17:58.250Z,56
2023-04-24T13:19:05.251Z,56
2023-04-24T13:20:12.082Z,55
2023-04-24T13:21:19.103Z,55
2023-04-24T13:22:25.942Z,56
2023-04-24T13:23:32.681Z,56
2023-04-24T13:24:40.114Z,55
2023-04-24T13:25:46.529Z,56
2023-04-24T13:26:53.780Z,55
2023-04-24T13:28:00.540Z,56
2023-04-24T13:29:07.355Z,56
2023-04-24T13:30:14.199Z,56
2023-04-24T13:31:21.093Z,56
2023-04-24T13:32:27.871Z,56
2023-04-24T13:33:34.622Z,56
2023-04-24T13:34:41.402Z,57
2023-04-24T13:35:48.141Z,57
2023-04-24T13:36:55.864Z,57
2023-04-24T13:38:02.686Z,57
2023-04-24T13:39:09.494Z,58
2023-04-24T13:40:16.726Z,58
2023-04-24T13:41:23.531Z,58
2023-04-24T13:42:30.286Z,58
2023-04-24T13:43:37.085Z,58
2023-04-24T13:44:43.891Z,58
2023-04-24T13:45:50.686Z,58
2023-04-24T13:46:57.422Z,59
2023-04-24T13:48:04.321Z,58
2023-04-24T13:49:11.062Z,58
2023-04-24T13:50:17.892Z,58
2023-04-24T13:51:24.761Z,59
2023-04-24T13:52:31.608Z,60
2023-04-24T13:53:38.390Z,60
2023-04-24T13:54:45.229Z,60
2023-04-24T13:55:52.074Z,61
2023-04-24T13:56:58.916Z,60
2023-04-24T13:58:05.742Z,61
2023-04-24T13:59:12.509Z,61
2023-04-24T14:00:19.325Z,61
2023-04-24T14:01:26.153Z,61
2023-04-24T14:02:33.120Z,61
2023-04-24T14:03:39.997Z,61
2023-04-24T14:04:46.887Z,61
2023-04-24T14:05:53.388Z,62
2023-04-24T14:07:00.352Z,62
2023-04-24T14:08:07.173Z,62
2023-04-24T14:09:13.968Z,62
2023-04-24T14:10:20.830Z,62
2023-04-24T14:11:27.638Z,62
2023-04-24T14:12:34.507Z,63
2023-04-24T14:13:42.550Z,63
2023-04-24T14:14:49.073Z,63
2023-04-24T14:15:55.940Z,62
2023-04-24T14:17:02.807Z,63
2023-04-24T14:18:09.601Z,63
2023-04-24T14:19:17.425Z,63
2023-04-24T14:20:24.208Z,63
2023-04-24T14:21:31.036Z,63
2023-04-24T14:22:37.827Z,63
2023-04-24T14:23:44.931Z,63
2023-04-24T14:24:51.476Z,63
2023-04-24T14:25:58.241Z,63
2023-04-24T14:27:05.085Z,63
2023-04-24T14:28:11.877Z,62
2023-04-24T14:29:18.710Z,63
2023-04-24T14:30:25.529Z,63
2023-04-24T14:31:32.487Z,62
2023-04-24T14:32:39.172Z,63
2023-04-24T14:33:46.065Z,63
2023-04-24T14:34:52.731Z,63
2023-04-24T14:35:59.528Z,64
2023-04-24T14:37:06.381Z,63
2023-04-24T14:38:13.117Z,64
2023-04-24T14:39:19.883Z,64
2023-04-24T14:40:45.338Z,64
2023-04-24T14:41:33.634Z,64
2023-04-24T14:42:40.423Z,65
2023-04-24T14:43:47.420Z,65
2023-04-24T14:44:54.038Z,65
2023-04-24T14:46:00.855Z,65
2023-04-24T14:47:07.753Z,65
2023-04-24T14:48:14.393Z,66
2023-04-24T14:49:21.265Z,66
2023-04-24T14:50:28.160Z,67
2023-04-24T14:51:35.002Z,67
2023-04-24T14:52:41.797Z,67
2023-04-24T14:53:49.061Z,68
2023-04-24T14:54:55.980Z,68
2023-04-24T14:56:02.794Z,69
2023-04-24T14:57:09.822Z,69
2023-04-24T14:58:16.780Z,71
2023-04-24T14:59:23.637Z,70
2023-04-24T15:00:30.403Z,72
2023-04-24T15:01:37.231Z,73
2023-04-24T15:02:44.208Z,72
2023-04-24T15:03:51.143Z,72
2023-04-24T15:04:57.803Z,74
2023-04-24T15:06:04.323Z,74
2023-04-24T15:07:11.183Z,74
2023-04-24T15:08:17.991Z,73
2023-04-24T15:09:24.776Z,74
2023-04-24T15:10:31.669Z,74
2023-04-24T15:11:38.745Z,75
2023-04-24T15:12:45.533Z,76
2023-04-24T15:13:54.774Z,74
2023-04-24T15:15:01.577Z,75
2023-04-24T15:16:08.783Z,75
2023-04-24T15:17:15.644Z,77
2023-04-24T15:18:22.539Z,76
2023-04-24T15:19:29.267Z,76
2023-04-24T15:20:38.471Z,77
2023-04-24T15:21:45.982Z,77
2023-04-24T15:22:52.769Z,76
2023-04-24T15:23:59.522Z,76
2023-04-24T15:25:06.374Z,77
2023-04-24T15:26:13.195Z,77
2023-04-24T15:27:19.948Z,78
2023-04-24T15:28:26.766Z,78
2023-04-24T15:29:33.592Z,78
2023-04-24T15:30:40.343Z,77
2023-04-24T15:31:47.221Z,77
2023-04-24T15:32:54.012Z,77
2023-04-24T15:34:00.860Z,77
2023-04-24T15:35:09.517Z,77
2023-04-24T15:36:14.410Z,77
2023-04-24T15:37:21.178Z,77
2023-04-24T15:38:27.941Z,77
2023-04-24T15:39:34.767Z,78
2023-04-24T15:40:41.665Z,78
2023-04-24T15:41:48.460Z,78
2023-04-24T15:42:55.306Z,78
2023-04-24T15:44:02.142Z,77
2023-04-24T15:45:08.999Z,78
2023-04-24T15:46:15.971Z,78
2023-04-24T15:47:22.801Z,78
2023-04-24T15:48:29.615Z,78
2023-04-24T15:49:36.435Z,78
2023-04-24T15:50:43.229Z,78
2023-04-24T15:51:50.036Z,78
2023-04-24T15:52:56.868Z,78
2023-04-24T15:54:03.701Z,79
2023-04-24T15:55:10.527Z,79
2023-04-24T15:56:17.298Z,79
2023-04-24T15:57:24.037Z,79
2023-04-24T15:58:30.856Z,79
2023-04-24T15:59:38.844Z,79